Time;durP1;ratioP1;P1;durP2;ratioP2;P2;SDS_P1;SDS_P2;PMS_P1;PMS_P2;Temp;Humidity;BMP_temperature;BMP_pressure;BME280_temperature;BME280_humidity;BME280_pressure;Samples;Min_cycle;Max_cycle;Signal;HPM_P1;HPM_P2
2023/06/05 00:02:05;;;;;;;8.70;5.53;;;11.30;99.90;;;;;;5094214;28;20498;-65
2023/06/05 00:04:31;;;;;;;5.55;4.68;;;11.30;99.90;;;;;;5094639;28;20044;-65
2023/06/05 00:06:57;;;;;;;9.57;5.75;;;11.30;99.90;;;;;;5094588;28;20077;-65
2023/06/05 00:09:23;;;;;;;7.55;5.28;;;11.30;99.90;;;;;;5093440;28;20385;-65
2023/06/05 00:11:50;;;;;;;8.93;5.15;;;11.30;99.90;;;;;;5094559;28;20048;-65
2023/06/05 00:14:17;;;;;;;9.43;5.30;;;11.30;99.90;;;;;;5094728;28;20060;-66
2023/06/05 00:16:43;;;;;;;7.47;5.60;;;11.30;99.90;;;;;;5094546;28;20044;-65
2023/06/05 00:19:10;;;;;;;8.20;5.53;;;11.20;99.90;;;;;;5093931;28;20548;-65
2023/06/05 00:21:36;;;;;;;8.43;5.28;;;11.20;99.90;;;;;;5093918;28;20048;-66
2023/06/05 00:24:02;;;;;;;9.82;5.93;;;11.20;99.90;;;;;;5094682;28;20068;-66
2023/06/05 00:26:28;;;;;;;8.07;5.38;;;11.20;99.90;;;;;;5093883;28;20052;-66
2023/06/05 00:28:55;;;;;;;9.48;5.40;;;11.10;99.90;;;;;;5092662;28;20451;-66
2023/06/05 00:31:21;;;;;;;7.20;5.53;;;11.10;99.90;;;;;;5094110;28;20074;-65
2023/06/05 00:33:48;;;;;;;8.68;5.03;;;11.00;99.90;;;;;;5094392;28;20391;-66
2023/06/05 00:36:14;;;;;;;8.77;5.70;;;11.00;99.90;;;;;;5093998;28;20478;-64
2023/06/05 00:38:41;;;;;;;7.88;5.78;;;10.90;99.90;;;;;;5094158;28;20051;-65
2023/06/05 00:41:07;;;;;;;9.38;5.40;;;11.00;99.90;;;;;;5093680;28;20048;-64
2023/06/05 00:43:33;;;;;;;7.32;5.20;;;10.90;99.90;;;;;;5094038;28;20475;-64
2023/06/05 00:46:03;;;;;;;8.50;5.40;;;10.90;99.90;;;;;;5092557;28;20083;-65
2023/06/05 00:48:31;;;;;;;7.28;5.28;;;11.00;99.90;;;;;;5093380;28;20093;-65
2023/06/05 00:50:57;;;;;;;8.02;4.88;;;11.00;99.90;;;;;;5093230;28;20471;-66
2023/06/05 00:53:25;;;;;;;6.80;5.60;;;11.00;99.90;;;;;;5093851;28;20113;-66
2023/06/05 00:55:52;;;;;;;8.15;5.60;;;11.00;99.90;;;;;;5093861;28;20048;-66
2023/06/05 00:58:19;;;;;;;8.98;5.18;;;10.90;99.90;;;;;;5093612;28;20055;-64
2023/06/05 01:00:45;;;;;;;8.02;5.70;;;10.90;99.90;;;;;;5093193;28;20047;-64
2023/06/05 01:03:12;;;;;;;7.78;5.15;;;10.90;99.90;;;;;;5093201;28;20557;-65
2023/06/05 01:05:39;;;;;;;8.23;5.53;;;10.80;99.90;;;;;;5093207;28;20048;-64
2023/06/05 01:08:09;;;;;;;7.43;5.47;;;10.80;99.90;;;;;;5093382;28;20048;-65
2023/06/05 01:10:35;;;;;;;10.43;6.47;;;10.70;99.90;;;;;;5092765;28;20047;-64
2023/06/05 01:13:01;;;;;;;8.85;6.10;;;10.70;99.90;;;;;;5093349;28;20044;-64
2023/06/05 01:15:29;;;;;;;9.30;6.05;;;10.60;99.90;;;;;;5093235;28;20051;-64
2023/06/05 01:18:00;;;;;;;8.00;5.70;;;10.60;99.90;;;;;;5093283;28;20048;-64
2023/06/05 01:20:37;;;;;;;7.78;6.18;;;10.60;99.90;;;;;;5091498;28;20076;-66
2023/06/05 01:23:07;;;;;;;9.18;5.20;;;10.60;99.90;;;;;;5093278;28;20048;-65
2023/06/05 01:25:36;;;;;;;6.85;5.40;;;10.60;99.90;;;;;;5092767;28;20446;-65
2023/06/05 01:28:22;;;;;;;9.75;6.13;;;10.50;99.90;;;;;;5092981;28;20101;-63
2023/06/05 01:31:07;;;;;;;8.00;6.03;;;10.60;99.90;;;;;;5091917;28;20043;-64
2023/06/05 01:33:43;;;;;;;8.50;5.80;;;10.60;99.90;;;;;;5093074;28;20055;-67
2023/06/05 01:36:11;;;;;;;9.55;6.00;;;10.50;99.90;;;;;;5092570;28;20460;-66
2023/06/05 01:38:39;;;;;;;8.85;6.07;;;10.50;99.90;;;;;;5091820;28;20047;-65
2023/06/05 01:41:06;;;;;;;9.10;5.72;;;10.50;99.90;;;;;;5092171;28;20066;-65
2023/06/05 01:43:34;;;;;;;10.43;6.80;;;10.50;99.90;;;;;;5092898;28;20063;-66
2023/06/05 01:46:00;;;;;;;10.88;6.35;;;10.50;99.90;;;;;;5092714;28;20056;-66
2023/06/05 01:48:30;;;;;;;9.13;5.93;;;10.50;99.90;;;;;;5092330;28;20044;-66
2023/06/05 01:50:58;;;;;;;8.90;6.18;;;10.40;99.90;;;;;;5070962;28;20383;-66
2023/06/05 01:53:25;;;;;;;10.50;6.53;;;10.40;99.90;;;;;;5072412;28;20113;-67
2023/06/05 01:55:53;;;;;;;9.45;6.10;;;10.40;99.90;;;;;;5072439;28;20055;-64
2023/06/05 01:58:21;;;;;;;9.82;6.20;;;10.50;99.90;;;;;;5071401;28;20059;-67
2023/06/05 02:00:47;;;;;;;9.63;6.60;;;10.40;99.90;;;;;;5091615;28;20044;-65
2023/06/05 02:03:17;;;;;;;8.40;5.78;;;10.40;99.90;;;;;;5091521;28;20052;-65
2023/06/05 02:05:44;;;;;;;9.77;6.25;;;10.50;99.90;;;;;;5092299;28;20070;-64
2023/06/05 02:08:10;;;;;;;9.82;6.00;;;10.50;99.90;;;;;;5091866;28;20047;-66
2023/06/05 02:10:39;;;;;;;10.73;5.68;;;10.40;99.90;;;;;;5091519;28;20124;-64
2023/06/05 02:13:06;;;;;;;7.97;5.88;;;10.50;99.90;;;;;;5092063;28;20043;-64
2023/06/05 02:15:33;;;;;;;7.63;5.75;;;10.40;99.90;;;;;;5092143;28;20113;-66
2023/06/05 02:18:00;;;;;;;8.43;6.07;;;10.40;99.90;;;;;;5092179;28;20055;-66
2023/06/05 02:20:28;;;;;;;8.80;6.25;;;10.50;99.90;;;;;;5091326;28;20105;-66
2023/06/05 02:22:54;;;;;;;11.60;6.72;;;10.40;99.90;;;;;;5092331;28;20110;-68
2023/06/05 02:25:25;;;;;;;10.50;6.03;;;10.30;99.90;;;;;;5092092;28;20384;-66
2023/06/05 02:27:52;;;;;;;10.35;6.00;;;10.30;99.90;;;;;;5092324;28;20456;-66
2023/06/05 02:30:20;;;;;;;10.88;6.50;;;10.30;99.90;;;;;;5091047;28;20044;-64
2023/06/05 02:32:46;;;;;;;9.05;6.45;;;10.20;99.90;;;;;;5092025;28;20067;-66
2023/06/05 02:35:13;;;;;;;9.00;6.07;;;10.20;99.90;;;;;;5091895;28;20345;-65
2023/06/05 02:37:44;;;;;;;11.18;6.20;;;10.10;99.90;;;;;;5091969;28;20044;-64
2023/06/05 02:40:12;;;;;;;9.30;6.40;;;10.10;99.90;;;;;;5090984;28;20376;-65
2023/06/05 02:42:39;;;;;;;9.88;6.32;;;10.10;99.90;;;;;;5091947;28;20048;-65
2023/06/05 02:45:07;;;;;;;12.02;6.72;;;10.10;99.90;;;;;;5091935;28;20113;-64
2023/06/05 02:47:33;;;;;;;10.85;6.47;;;10.10;99.90;;;;;;5091930;28;20113;-65
2023/06/05 02:50:01;;;;;;;8.02;5.78;;;10.00;99.90;;;;;;5094739;28;20073;-65
2023/06/05 02:52:34;;;;;;;8.75;5.97;;;10.00;99.90;;;;;;5095783;28;20055;-65
2023/06/05 02:55:05;;;;;;;12.63;6.50;;;10.00;99.90;;;;;;5095034;28;20318;-65
2023/06/05 02:57:33;;;;;;;9.32;6.78;;;10.00;99.90;;;;;;5095707;28;20064;-65
2023/06/05 03:00:07;;;;;;;9.80;6.95;;;9.90;99.90;;;;;;5095567;28;20358;-66
2023/06/05 03:02:36;;;;;;;9.93;6.32;;;9.90;99.90;;;;;;5096135;28;20058;-64
2023/06/05 03:05:03;;;;;;;9.07;6.57;;;9.90;99.90;;;;;;5095476;28;20063;-64
2023/06/05 03:07:30;;;;;;;9.98;6.20;;;9.90;99.90;;;;;;5095160;28;20414;-64
2023/06/05 03:09:56;;;;;;;9.63;6.38;;;9.90;99.90;;;;;;5093614;28;20302;-63
2023/06/05 03:12:22;;;;;;;10.00;6.38;;;9.90;99.90;;;;;;5095846;28;20051;-64
2023/06/05 03:14:49;;;;;;;10.20;6.85;;;9.90;99.90;;;;;;5095635;28;20409;-64
2023/06/05 03:17:15;;;;;;;10.55;6.60;;;9.90;99.90;;;;;;5095663;28;20052;-64
2023/06/05 03:19:41;;;;;;;12.30;7.18;;;9.90;99.90;;;;;;5094657;28;20078;-64
2023/06/05 03:22:08;;;;;;;7.78;6.03;;;10.00;99.90;;;;;;5095585;28;20051;-65
2023/06/05 03:24:37;;;;;;;12.25;7.30;;;9.90;99.90;;;;;;5095397;28;20079;-66
2023/06/05 03:27:06;;;;;;;10.38;7.18;;;10.00;99.90;;;;;;5095400;28;20047;-65
2023/06/05 03:29:33;;;;;;;8.93;6.45;;;10.00;99.90;;;;;;5094371;28;20056;-65
2023/06/05 03:31:59;;;;;;;10.38;6.78;;;10.00;99.90;;;;;;5095439;28;20048;-67
2023/06/05 03:34:26;;;;;;;10.00;6.70;;;10.00;99.90;;;;;;5077144;28;20052;-64
2023/06/05 03:36:52;;;;;;;11.32;7.45;;;10.00;99.90;;;;;;5095123;28;20075;-64
2023/06/05 03:39:19;;;;;;;11.50;6.72;;;10.00;99.90;;;;;;5094913;28;20076;-63
2023/06/05 03:41:45;;;;;;;10.32;6.68;;;10.00;99.90;;;;;;5094752;28;20293;-64
2023/06/05 03:44:11;;;;;;;11.95;6.50;;;10.00;99.90;;;;;;5094687;28;20361;-64
2023/06/05 03:46:38;;;;;;;9.20;6.25;;;10.00;99.90;;;;;;5094835;28;20138;-64
2023/06/05 03:49:08;;;;;;;9.95;6.95;;;10.00;99.90;;;;;;5094462;28;20054;-64
2023/06/05 03:51:35;;;;;;;11.15;6.57;;;10.10;99.90;;;;;;5094739;28;20036;-66
2023/06/05 03:54:03;;;;;;;10.35;7.20;;;10.10;99.90;;;;;;5094761;28;20051;-65
2023/06/05 03:56:33;;;;;;;10.88;6.80;;;10.10;99.90;;;;;;5094956;28;20047;-66
2023/06/05 03:59:18;;;;;;;10.55;6.97;;;10.10;99.90;;;;;;5093678;28;20125;-66
2023/06/05 04:01:45;;;;;;;11.48;6.78;;;10.10;99.90;;;;;;5093866;28;20044;-64
2023/06/05 04:04:11;;;;;;;10.30;7.13;;;10.20;99.90;;;;;;5094767;28;20052;-64
2023/06/05 04:06:38;;;;;;;13.48;7.22;;;10.20;99.90;;;;;;5094297;28;20468;-65
2023/06/05 04:09:11;;;;;;;14.55;7.88;;;10.30;99.90;;;;;;5094322;28;20048;-64
2023/06/05 04:11:42;;;;;;;12.07;7.43;;;10.30;99.90;;;;;;5094152;28;20055;-66
2023/06/05 04:14:09;;;;;;;12.38;6.82;;;10.30;99.90;;;;;;5094400;28;20044;-66
2023/06/05 04:16:41;;;;;;;12.85;6.80;;;10.30;99.90;;;;;;5094018;28;20498;-64
2023/06/05 04:19:09;;;;;;;12.05;7.38;;;10.40;99.90;;;;;;5094540;28;20047;-64
2023/06/05 04:21:37;;;;;;;9.38;6.28;;;10.40;99.90;;;;;;5093885;28;20048;-65
2023/06/05 04:24:06;;;;;;;10.13;7.00;;;10.40;99.90;;;;;;5093939;28;20383;-65
2023/06/05 04:26:37;;;;;;;10.15;6.93;;;10.50;99.90;;;;;;5094346;28;20052;-64
2023/06/05 04:29:13;;;;;;;11.18;6.80;;;10.50;99.90;;;;;;5093607;28;20116;-65
2023/06/05 04:31:43;;;;;;;8.98;6.43;;;10.60;99.90;;;;;;5093886;28;20067;-65
2023/06/05 04:34:10;;;;;;;9.68;6.10;;;10.60;99.90;;;;;;5094302;28;20044;-66
2023/06/05 04:36:36;;;;;;;11.57;7.55;;;10.60;99.90;;;;;;5093867;28;20123;-63
2023/06/05 04:39:10;;;;;;;11.05;7.38;;;10.70;99.90;;;;;;5093678;28;20113;-63
2023/06/05 04:41:39;;;;;;;10.30;6.85;;;10.70;99.90;;;;;;5086302;28;20040;-65
2023/06/05 04:44:05;;;;;;;10.70;6.50;;;10.80;99.90;;;;;;5083876;28;20056;-66
2023/06/05 04:46:31;;;;;;;11.45;6.60;;;10.90;99.90;;;;;;5082741;28;20048;-67
2023/06/05 04:48:57;;;;;;;10.98;7.50;;;10.90;99.90;;;;;;5083503;28;20052;-66
2023/06/05 04:51:24;;;;;;;10.70;6.70;;;11.00;99.90;;;;;;5082426;28;20435;-64
2023/06/05 04:53:52;;;;;;;11.27;6.45;;;11.40;99.90;;;;;;5084250;28;20132;-65
2023/06/05 04:56:21;;;;;;;9.57;6.88;;;12.20;99.90;;;;;;5081307;28;20368;-65
2023/06/05 04:58:50;;;;;;;9.43;6.47;;;12.90;99.90;;;;;;5082606;28;20116;-64
2023/06/05 05:01:16;;;;;;;9.57;6.53;;;13.90;99.90;;;;;;5083992;28;20067;-64
2023/06/05 05:03:44;;;;;;;9.18;6.72;;;14.50;99.90;;;;;;5083661;28;20045;-64
2023/06/05 05:06:10;;;;;;;10.85;6.55;;;15.00;99.90;;;;;;5081128;28;20480;-66
2023/06/05 05:08:37;;;;;;;8.65;6.43;;;15.30;99.90;;;;;;5091929;28;20063;-65
2023/06/05 05:11:03;;;;;;;11.82;6.15;;;15.90;99.90;;;;;;5092575;28;20048;-65
2023/06/05 05:13:29;;;;;;;8.23;6.35;;;16.30;99.90;;;;;;5092285;28;20058;-64
2023/06/05 05:15:55;;;;;;;10.13;6.95;;;16.50;99.90;;;;;;5092945;28;20461;-65
2023/06/05 05:18:22;;;;;;;10.32;6.80;;;16.40;99.90;;;;;;5093385;28;20066;-65
2023/06/05 05:20:48;;;;;;;8.70;6.50;;;16.60;99.90;;;;;;5092670;28;20047;-64
2023/06/05 05:23:15;;;;;;;8.07;6.15;;;17.10;99.90;;;;;;5093177;28;20415;-65
2023/06/05 05:25:41;;;;;;;7.60;6.28;;;17.30;99.90;;;;;;5093183;28;20055;-66
2023/06/05 05:28:08;;;;;;;8.38;6.15;;;17.40;99.90;;;;;;5093071;28;20185;-65
2023/06/05 05:30:35;;;;;;;9.65;6.47;;;17.50;99.90;;;;;;5091850;28;20048;-65
2023/06/05 05:33:01;;;;;;;7.93;6.22;;;17.50;99.90;;;;;;5092297;28;20052;-66
2023/06/05 05:35:27;;;;;;;9.23;6.88;;;17.60;99.90;;;;;;5091854;28;20052;-66
2023/06/05 05:37:54;;;;;;;8.13;6.10;;;17.70;99.90;;;;;;5092924;28;20059;-66
2023/06/05 05:40:21;;;;;;;7.70;6.10;;;17.60;99.90;;;;;;5092108;28;20048;-65
2023/06/05 05:42:47;;;;;;;8.68;6.68;;;18.10;99.90;;;;;;5090918;28;20052;-65
2023/06/05 05:45:13;;;;;;;7.10;6.18;;;18.50;99.90;;;;;;5092244;28;20048;-65
2023/06/05 05:47:40;;;;;;;7.93;6.13;;;18.40;99.90;;;;;;5090755;28;20476;-65
2023/06/05 05:50:06;;;;;;;9.38;6.05;;;18.90;99.90;;;;;;5092140;28;20057;-65
2023/06/05 05:52:33;;;;;;;8.50;6.10;;;19.10;99.90;;;;;;5091188;28;20044;-65
2023/06/05 05:54:59;;;;;;;7.53;6.07;;;19.30;99.90;;;;;;5092322;28;20479;-65
2023/06/05 05:57:27;;;;;;;6.75;5.65;;;19.70;99.90;;;;;;5092743;28;20047;-65
2023/06/05 05:59:53;;;;;;;8.77;6.30;;;19.90;99.90;;;;;;5091818;28;20403;-65
2023/06/05 06:02:20;;;;;;;7.28;5.85;;;20.00;99.90;;;;;;5092672;28;20135;-66
2023/06/05 06:04:47;;;;;;;7.28;5.53;;;20.10;99.90;;;;;;5091653;28;20059;-65
2023/06/05 06:07:13;;;;;;;6.63;5.65;;;20.10;99.90;;;;;;5092333;28;20063;-65
2023/06/05 06:09:40;;;;;;;7.07;4.90;;;20.20;99.90;;;;;;5091339;28;20492;-67
2023/06/05 06:12:07;;;;;;;7.70;5.60;;;20.00;99.90;;;;;;5091092;28;20105;-66
2023/06/05 06:14:34;;;;;;;6.47;5.38;;;20.20;99.90;;;;;;5092197;28;20048;-65
2023/06/05 06:17:01;;;;;;;5.93;5.30;;;20.00;99.90;;;;;;5092065;28;20479;-65
2023/06/05 06:19:28;;;;;;;7.28;5.63;;;19.80;99.90;;;;;;5091922;28;20051;-67
2023/06/05 06:21:55;;;;;;;8.27;5.75;;;19.30;99.90;;;;;;5092395;28;20070;-66
2023/06/05 06:24:22;;;;;;;5.57;4.97;;;19.30;99.90;;;;;;5091693;28;20372;-64
2023/06/05 06:26:49;;;;;;;7.35;5.70;;;19.20;99.90;;;;;;5092320;28;20052;-66
2023/06/05 06:29:19;;;;;;;7.18;5.22;;;19.20;99.90;;;;;;5091273;28;20055;-66
2023/06/05 06:31:45;;;;;;;8.13;5.18;;;19.10;99.90;;;;;;5092419;28;20109;-65
2023/06/05 06:34:11;;;;;;;6.20;5.47;;;19.20;99.90;;;;;;5092373;28;20055;-65
2023/06/05 06:36:40;;;;;;;6.07;5.00;;;19.20;99.90;;;;;;5092189;28;20044;-66
2023/06/05 06:39:10;;;;;;;7.82;5.15;;;19.20;99.90;;;;;;5092034;28;20040;-66
2023/06/05 06:41:37;;;;;;;8.27;4.97;;;19.30;99.90;;;;;;5092078;28;20048;-66
2023/06/05 06:44:03;;;;;;;6.00;5.22;;;19.70;99.90;;;;;;5091879;28;20341;-64
2023/06/05 06:46:30;;;;;;;7.05;4.90;;;19.80;99.90;;;;;;5092030;28;20048;-65
2023/06/05 06:48:57;;;;;;;6.63;4.72;;;20.60;99.90;;;;;;5090778;28;20109;-65
2023/06/05 06:51:24;;;;;;;6.10;4.72;;;20.80;99.90;;;;;;5091795;28;20060;-64
2023/06/05 06:53:50;;;;;;;7.38;4.85;;;20.70;99.90;;;;;;5092369;28;20044;-65
2023/06/05 06:56:17;;;;;;;6.13;4.90;;;20.40;99.90;;;;;;5091869;28;20130;-65
2023/06/05 06:58:48;;;;;;;7.00;4.50;;;19.80;99.90;;;;;;5091744;28;20452;-65
2023/06/05 07:01:15;;;;;;;5.65;4.32;;;19.60;99.90;;;;;;5071623;28;20052;-64
2023/06/05 07:03:42;;;;;;;6.97;4.70;;;19.40;99.90;;;;;;5071623;28;20053;-65
2023/06/05 07:06:11;;;;;;;5.75;4.78;;;19.30;99.90;;;;;;5071427;28;20052;-64
2023/06/05 07:08:38;;;;;;;6.15;4.45;;;19.20;99.90;;;;;;5071420;28;20437;-65
2023/06/05 07:11:04;;;;;;;5.78;4.68;;;19.10;99.90;;;;;;5090556;28;20044;-66
2023/06/05 07:13:30;;;;;;;7.15;4.53;;;19.10;99.90;;;;;;5091596;28;20051;-65
2023/06/05 07:15:57;;;;;;;5.20;4.10;;;19.30;99.90;;;;;;5091629;28;20051;-64
2023/06/05 07:18:23;;;;;;;5.60;4.97;;;19.30;99.90;;;;;;5091880;28;20471;-64
2023/06/05 07:20:49;;;;;;;7.78;4.70;;;19.20;99.90;;;;;;5091296;28;20055;-64
2023/06/05 07:23:17;;;;;;;6.05;4.53;;;18.80;99.90;;;;;;5091949;28;20132;-64
2023/06/05 07:25:45;;;;;;;6.32;4.43;;;18.80;99.90;;;;;;5091454;28;20081;-64
2023/06/05 07:28:12;;;;;;;5.65;3.97;;;18.60;99.90;;;;;;5091347;28;20059;-65
2023/06/05 07:30:43;;;;;;;6.28;4.20;;;18.70;99.90;;;;;;5090477;28;20066;-64
2023/06/05 07:33:09;;;;;;;6.63;4.57;;;18.70;99.90;;;;;;5091374;28;20469;-64
2023/06/05 07:35:36;;;;;;;5.43;4.30;;;18.90;99.90;;;;;;5092688;28;20097;-64
2023/06/05 07:38:02;;;;;;;5.75;4.50;;;18.70;99.90;;;;;;5095153;28;20051;-64
2023/06/05 07:40:28;;;;;;;5.60;4.60;;;18.70;99.90;;;;;;5094541;28;20346;-66
2023/06/05 07:42:55;;;;;;;6.40;4.57;;;18.70;99.90;;;;;;5094852;28;20054;-66
2023/06/05 07:45:21;;;;;;;5.00;4.45;;;18.90;99.90;;;;;;5095278;28;20047;-66
2023/06/05 07:47:47;;;;;;;6.07;4.28;;;18.90;99.90;;;;;;5094714;28;20044;-65
2023/06/05 07:50:13;;;;;;;6.53;4.22;;;18.70;99.90;;;;;;5094135;28;20043;-64
2023/06/05 07:52:40;;;;;;;5.82;4.55;;;18.90;99.90;;;;;;5094994;28;20044;-65
2023/06/05 07:55:07;;;;;;;6.57;5.00;;;19.00;99.90;;;;;;5094598;28;20047;-64
2023/06/05 07:57:34;;;;;;;5.70;4.22;;;18.90;99.90;;;;;;5094659;28;20048;-64
2023/06/05 08:00:00;;;;;;;6.10;4.30;;;18.80;99.90;;;;;;5093238;28;20060;-64
2023/06/05 08:02:26;;;;;;;5.20;4.00;;;18.70;99.90;;;;;;5094619;28;20048;-64
2023/06/05 08:04:53;;;;;;;5.70;4.15;;;18.80;99.90;;;;;;5093697;28;20059;-64
2023/06/05 08:07:19;;;;;;;6.95;4.65;;;18.90;99.90;;;;;;5093876;28;20365;-64
2023/06/05 08:09:45;;;;;;;7.05;4.03;;;18.90;99.90;;;;;;5093622;28;20086;-66
2023/06/05 08:12:12;;;;;;;5.45;4.10;;;18.80;99.90;;;;;;5094607;28;20048;-65
2023/06/05 08:14:38;;;;;;;7.57;4.35;;;18.80;99.90;;;;;;5094070;28;20437;-65
2023/06/05 08:17:04;;;;;;;6.55;4.85;;;18.70;99.90;;;;;;5094378;28;20055;-65
2023/06/05 08:19:31;;;;;;;5.65;4.68;;;18.60;99.90;;;;;;5093282;28;20044;-65
2023/06/05 08:21:57;;;;;;;4.88;4.32;;;18.70;99.90;;;;;;5093996;28;20410;-65
2023/06/05 08:24:23;;;;;;;5.35;4.30;;;18.90;99.90;;;;;;5093886;28;20414;-66
2023/06/05 08:26:49;;;;;;;6.80;4.35;;;18.90;99.90;;;;;;5094233;28;20376;-65
2023/06/05 08:29:15;;;;;;;6.10;4.40;;;18.80;99.90;;;;;;5092831;28;20545;-65
2023/06/05 08:31:42;;;;;;;7.43;4.47;;;19.00;99.90;;;;;;5093428;28;20056;-65
2023/06/05 08:34:08;;;;;;;6.78;4.50;;;19.10;99.90;;;;;;5094103;28;20131;-64
2023/06/05 08:36:35;;;;;;;6.90;4.20;;;19.20;99.90;;;;;;5093354;28;20048;-64
2023/06/05 08:39:02;;;;;;;5.97;4.13;;;19.30;99.90;;;;;;5093237;28;20041;-63
2023/06/05 08:41:33;;;;;;;4.30;3.75;;;19.20;99.90;;;;;;5093921;28;20418;-64
2023/06/05 08:43:59;;;;;;;5.57;3.58;;;19.10;99.90;;;;;;5093942;28;20048;-66
2023/06/05 08:46:28;;;;;;;5.30;4.10;;;19.30;99.90;;;;;;5093520;28;20076;-66
2023/06/05 08:48:56;;;;;;;5.32;3.83;;;19.20;99.90;;;;;;5093468;28;20475;-68
2023/06/05 08:51:23;;;;;;;5.75;3.67;;;19.20;99.90;;;;;;5073432;28;20071;-64
2023/06/05 08:54:12;;;;;;;6.10;3.63;;;19.00;99.90;;;;;;5073968;28;20053;-65
2023/06/05 08:56:43;;;;;;;5.25;3.30;;;19.00;99.90;;;;;;5073263;28;20110;-64
2023/06/05 08:59:14;;;;;;;5.90;3.67;;;19.10;99.90;;;;;;5074955;28;20400;-64
2023/06/05 09:01:41;;;;;;;5.50;3.78;;;19.30;99.90;;;;;;5093448;28;20047;-65
2023/06/05 09:04:07;;;;;;;5.90;3.88;;;19.20;99.90;;;;;;5092579;28;20480;-66
2023/06/05 09:06:33;;;;;;;6.80;4.20;;;19.20;99.90;;;;;;5093320;28;20052;-65
2023/06/05 09:09:01;;;;;;;6.15;3.55;;;19.20;99.90;;;;;;5092657;28;20048;-65
2023/06/05 09:11:31;;;;;;;5.53;3.53;;;19.40;99.90;;;;;;5093270;28;20394;-65
2023/06/05 09:14:00;;;;;;;4.80;3.45;;;19.60;99.90;;;;;;5093380;28;20040;-66
2023/06/05 09:16:33;;;;;;;5.10;3.55;;;19.60;99.90;;;;;;5093319;28;20078;-65
2023/06/05 09:18:59;;;;;;;5.60;3.50;;;19.60;99.90;;;;;;5092932;28;20051;-65
2023/06/05 09:21:33;;;;;;;4.13;3.40;;;19.80;99.90;;;;;;5092812;28;20117;-64
2023/06/05 09:24:23;;;;;;;5.35;3.70;;;19.80;99.90;;;;;;5093263;28;20052;-65
2023/06/05 09:27:05;;;;;;;5.68;3.40;;;19.80;99.90;;;;;;5092485;28;20139;-65
2023/06/05 09:29:37;;;;;;;5.60;3.65;;;19.80;99.80;;;;;;5092048;28;20059;-65
2023/06/05 09:32:06;;;;;;;4.90;3.80;;;19.80;99.90;;;;;;5092617;28;20105;-66
2023/06/05 09:34:40;;;;;;;5.57;3.42;;;19.90;99.90;;;;;;5092684;28;20047;-64
2023/06/05 09:37:10;;;;;;;4.97;3.38;;;19.80;99.90;;;;;;5092864;28;20060;-65
2023/06/05 09:39:39;;;;;;;5.35;3.63;;;20.00;99.90;;;;;;5091898;28;20415;-66
2023/06/05 09:42:06;;;;;;;4.32;3.40;;;20.00;99.90;;;;;;5092722;28;20456;-66
2023/06/05 09:44:35;;;;;;;5.25;3.30;;;19.90;99.90;;;;;;5092919;28;20411;-65
2023/06/05 09:47:09;;;;;;;3.88;3.17;;;19.90;99.80;;;;;;5092719;28;20184;-65
2023/06/05 09:49:41;;;;;;;5.28;3.28;;;19.90;99.80;;;;;;5091974;28;20455;-65
2023/06/05 09:52:10;;;;;;;4.40;3.17;;;20.00;99.20;;;;;;5092302;28;20419;-65
2023/06/05 09:54:38;;;;;;;4.35;3.30;;;20.10;99.60;;;;;;5092522;28;20065;-65
2023/06/05 09:57:06;;;;;;;4.93;3.25;;;20.00;99.70;;;;;;5092661;28;20112;-65
2023/06/05 09:59:35;;;;;;;5.05;2.92;;;20.20;99.80;;;;;;5091307;28;20044;-64
2023/06/05 10:02:06;;;;;;;6.80;3.28;;;20.30;99.80;;;;;;5092648;28;20059;-65
2023/06/05 10:04:43;;;;;;;4.97;3.47;;;20.30;99.80;;;;;;5092654;28;20048;-64
2023/06/05 10:07:10;;;;;;;4.25;3.25;;;20.40;99.70;;;;;;5092622;28;20044;-64
2023/06/05 10:09:36;;;;;;;5.05;3.25;;;20.60;99.60;;;;;;5091776;28;20047;-65
2023/06/05 10:12:03;;;;;;;4.35;3.25;;;20.60;99.40;;;;;;5092299;28;20048;-65
2023/06/05 10:14:30;;;;;;;6.10;3.55;;;20.80;99.20;;;;;;5092262;28;20101;-66
2023/06/05 10:16:58;;;;;;;4.05;3.38;;;21.00;99.00;;;;;;5092338;28;20105;-66
2023/06/05 10:19:24;;;;;;;4.22;3.50;;;21.00;98.90;;;;;;5091933;28;20048;-65
2023/06/05 10:21:51;;;;;;;6.53;3.65;;;20.90;98.80;;;;;;5092382;28;20063;-63
2023/06/05 10:24:38;;;;;;;3.97;3.20;;;20.90;98.80;;;;;;5092337;28;20472;-64
2023/06/05 10:27:11;;;;;;;4.85;3.03;;;20.90;98.70;;;;;;5091885;28;20052;-64
2023/06/05 10:29:49;;;;;;;4.38;3.17;;;21.20;98.70;;;;;;5091099;28;20426;-63
2023/06/05 10:32:22;;;;;;;5.60;3.47;;;21.10;98.50;;;;;;5092019;28;20515;-64
2023/06/05 10:35:08;;;;;;;4.28;3.00;;;20.90;98.80;;;;;;5092078;28;20048;-64
2023/06/05 10:38:13;;;;;;;3.63;2.70;;;21.10;98.80;;;;;;5092165;28;20044;-65
2023/06/05 10:40:40;;;;;;;5.43;3.45;;;21.20;98.20;;;;;;5051597;28;20044;-64
2023/06/05 10:43:25;;;;;;;3.97;3.22;;;21.00;98.20;;;;;;5071925;28;20048;-64
2023/06/05 10:45:52;;;;;;;4.35;3.28;;;21.10;98.30;;;;;;5072075;28;20052;-64
2023/06/05 10:48:18;;;;;;;6.60;3.47;;;21.20;98.50;;;;;;5071515;28;20377;-65
2023/06/05 10:50:44;;;;;;;5.72;3.10;;;21.30;98.80;;;;;;5086140;28;20440;-64
2023/06/05 10:53:44;;;;;;;4.80;3.10;;;21.50;98.80;;;;;;5091970;28;20462;-64
2023/06/05 10:56:49;;;;;;;5.45;2.80;;;21.50;97.70;;;;;;5065501;28;20452;-64
2023/06/05 10:59:16;;;;;;;4.50;3.42;;;21.30;98.30;;;;;;5090963;28;20052;-64
2023/06/05 11:01:42;;;;;;;3.72;2.63;;;21.50;98.20;;;;;;5092082;28;20531;-65
2023/06/05 11:04:09;;;;;;;4.55;3.05;;;21.40;98.50;;;;;;5092000;28;20058;-63
2023/06/05 11:06:37;;;;;;;3.88;2.78;;;21.60;98.30;;;;;;5091720;28;20055;-64
2023/06/05 11:09:12;;;;;;;4.13;3.08;;;21.80;98.20;;;;;;5092072;28;20071;-64
2023/06/05 11:12:01;;;;;;;5.68;3.47;;;21.70;97.90;;;;;;5075919;28;20114;-65
2023/06/05 11:14:47;;;;;;;3.90;2.72;;;21.70;97.80;;;;;;5075512;28;20416;-65
2023/06/05 11:17:33;;;;;;;4.72;2.90;;;21.80;97.80;;;;;;5075113;28;20063;-64
2023/06/05 11:20:00;;;;;;;5.22;3.00;;;21.90;97.40;;;;;;5083330;28;20036;-66
2023/06/05 11:22:27;;;;;;;4.60;2.92;;;22.00;97.80;;;;;;5095610;28;20048;-65
2023/06/05 11:25:15;;;;;;;4.78;3.20;;;22.00;97.70;;;;;;5095705;28;20187;-65
2023/06/05 11:27:50;;;;;;;5.10;3.40;;;22.10;97.40;;;;;;5095603;28;20048;-65
2023/06/05 11:30:22;;;;;;;4.47;2.80;;;22.00;97.40;;;;;;5094475;28;20060;-65
2023/06/05 11:32:54;;;;;;;4.00;2.97;;;22.00;97.70;;;;;;5094882;28;20048;-65
2023/06/05 11:35:29;;;;;;;4.55;2.90;;;21.90;97.70;;;;;;5095545;28;20119;-64
2023/06/05 11:38:09;;;;;;;4.07;2.80;;;22.10;97.60;;;;;;5095354;28;20468;-65
2023/06/05 11:40:36;;;;;;;5.70;3.05;;;22.20;97.20;;;;;;5093890;28;20063;-65
2023/06/05 11:43:05;;;;;;;4.05;2.97;;;22.10;97.10;;;;;;5095249;28;20055;-63
2023/06/05 11:45:36;;;;;;;4.47;2.70;;;22.30;97.30;;;;;;5095237;28;20052;-65
2023/06/05 11:48:13;;;;;;;5.13;3.47;;;22.10;97.10;;;;;;5095205;28;20052;-64
2023/06/05 11:50:51;;;;;;;4.22;2.88;;;21.90;97.30;;;;;;5094137;28;20483;-65
2023/06/05 11:53:18;;;;;;;3.92;3.05;;;22.10;97.30;;;;;;5094961;28;20469;-65
2023/06/05 11:58:24;;;;;;;3.72;2.70;;;22.20;97.40;;;;;;5095287;28;20040;-65
2023/06/05 12:00:51;;;;;;;7.13;3.30;;;22.40;97.30;;;;;;5094613;28;20051;-64
2023/06/05 12:03:21;;;;;;;4.65;3.20;;;22.50;97.20;;;;;;5094429;28;20501;-65
2023/06/05 12:05:48;;;;;;;5.30;3.10;;;22.50;97.10;;;;;;5094681;28;20048;-66
2023/06/05 12:08:22;;;;;;;5.40;3.05;;;22.60;97.20;;;;;;5095169;28;20489;-66
2023/06/05 12:10:48;;;;;;;4.15;2.88;;;22.70;96.90;;;;;;5093234;28;20044;-65
2023/06/05 12:13:15;;;;;;;4.10;3.10;;;22.90;97.00;;;;;;5094805;28;20048;-64
2023/06/05 12:15:41;;;;;;;6.00;2.92;;;22.70;96.80;;;;;;5094448;28;20440;-64
2023/06/05 12:18:07;;;;;;;4.57;2.83;;;22.60;97.00;;;;;;5094873;28;20357;-65
2023/06/05 12:20:40;;;;;;;4.95;3.00;;;22.70;96.90;;;;;;5093652;28;20048;-64
2023/06/05 12:23:06;;;;;;;6.05;3.10;;;22.80;96.70;;;;;;5094451;28;20059;-65
2023/06/05 12:25:33;;;;;;;4.88;3.20;;;22.70;96.60;;;;;;5094550;28;20048;-63
2023/06/05 12:27:59;;;;;;;4.45;2.70;;;22.90;96.50;;;;;;5094371;28;20105;-65
2023/06/05 12:30:38;;;;;;;4.70;3.17;;;23.00;96.60;;;;;;5093209;28;20051;-65
2023/06/05 12:33:05;;;;;;;4.78;3.13;;;23.10;96.60;;;;;;5094082;28;20468;-65
2023/06/05 12:35:31;;;;;;;4.70;3.08;;;23.20;96.50;;;;;;5093974;28;20094;-64
2023/06/05 12:38:00;;;;;;;4.80;3.13;;;23.20;96.40;;;;;;5094236;28;20407;-65
2023/06/05 12:40:26;;;;;;;5.00;3.20;;;23.10;96.30;;;;;;5093422;28;20047;-64
2023/06/05 12:42:52;;;;;;;3.40;2.78;;;23.30;96.30;;;;;;5093817;28;20380;-65
2023/06/05 12:45:18;;;;;;;3.45;2.60;;;23.40;96.40;;;;;;5094056;28;20051;-64
2023/06/05 12:47:45;;;;;;;5.50;3.30;;;23.50;96.40;;;;;;5093968;28;20048;-64
2023/06/05 12:50:12;;;;;;;5.22;3.10;;;23.40;96.10;;;;;;5093095;28;20052;-63
2023/06/05 12:52:40;;;;;;;5.18;3.30;;;23.40;95.80;;;;;;5093874;28;20055;-64
2023/06/05 12:55:06;;;;;;;4.28;2.70;;;23.30;95.80;;;;;;5093994;28;20077;-64
2023/06/05 12:57:34;;;;;;;4.90;3.00;;;23.10;96.20;;;;;;5093794;28;20076;-65